CDT,Max TemperatureF,Mean TemperatureF,Min TemperatureF,Max Dew PointF,MeanDew PointF,Min DewpointF,Max Humidity, Mean Humidity, Min Humidity, Max Sea Level PressureIn, Mean Sea Level PressureIn, Min Sea Level PressureIn, Max VisibilityMiles, Mean VisibilityMiles, Min VisibilityMiles, Max Wind SpeedMPH, Mean Wind SpeedMPH, Max Gust SpeedMPH,PrecipitationIn, CloudCover, Events, WindDirDegrees
2013-10-1,84,68,53,59,54,46,82,63,40,29.97,29.92,29.86,10,10,7,16,9,20,0.00,0,,151
2013-10-2,82,71,60,68,63,57,94,76,54,30.00,29.93,29.87,10,8,0,18,10,28,0.00,3,,162
2013-10-3,87,78,69,66,64,63,83,66,46,29.87,29.78,29.70,10,10,10,29,17,36,0.00,3,,181
2013-10-4,87,71,53,66,59,34,88,66,44,30.02,29.80,29.71,10,10,5,29,19,38,0.20,3,Thunderstorm,203
2013-10-5,62,54,46,34,31,28,58,45,30,30.13,30.05,29.99,10,10,10,23,17,32,0.02,4,,302
2013-10-6,66,55,44,37,30,25,53,42,21,30.09,30.02,29.98,10,10,10,25,14,32,0.00,0,,306
2013-10-7,73,57,41,37,34,28,66,45,25,30.21,30.13,30.09,10,10,10,13,6,,0.00,0,,232
2013-10-8,75,62,48,45,41,37,66,49,29,30.09,30.04,29.97,10,10,10,24,12,30,0.00,0,,167
2013-10-9,78,64,51,52,47,43,76,57,34,30.05,30.00,29.97,10,10,9,22,13,26,0.00,0,,164
2013-10-10,80,68,55,55,52,48,77,62,42,30.02,29.94,29.81,10,10,10,22,13,33,0.00,0,,164
2013-10-11,80,70,60,57,48,30,73,51,19,29.94,29.80,29.74,10,10,9,25,17,32,0.00,1,,211
2013-10-12,69,56,44,41,36,32,76,46,25,30.27,30.14,29.94,10,10,5,15,10,21,0.00,0,,31
2013-10-13,69,56,42,43,37,32,66,47,30,30.37,30.29,30.23,10,10,5,20,9,26,0.00,3,,98
2013-10-14,62,60,57,57,50,39,88,73,45,30.22,30.02,29.84,10,9,2,22,14,30,0.64,7,,154
2013-10-15,59,50,42,54,38,34,88,64,44,30.16,30.08,29.95,10,10,10,22,13,30,0.01,1,,326
2013-10-16,55,46,37,37,34,30,87,64,44,30.18,30.12,30.05,10,10,10,13,8,17,0.00,1,,293
2013-10-17,66,52,39,41,35,28,87,59,26,30.09,30.02,29.96,10,10,10,15,8,18,0.00,1,,271
2013-10-18,44,38,33,34,31,28,87,79,65,30.19,30.14,30.07,10,8,1,15,9,20,0.39,4,,351
2013-10-19,64,40,15,37,33,27,93,66,32,30.15,30.03,29.93,10,10,10,20,9,26,0.00,0,,237
2013-10-20,68,55,42,45,38,34,76,57,37,29.99,29.89,29.83,10,10,10,18,10,22,0.00,0,,221
2013-10-21,60,50,39,39,34,30,81,57,36,30.16,30.09,30.00,10,10,10,15,9,20,0.00,1,,341
2013-10-22,66,55,44,43,37,34,71,55,35,30.14,30.04,29.99,10,10,10,24,11,32,0.00,1,,303
2013-10-23,64,38,12,39,35,28,81,61,40,30.18,30.12,30.02,10,10,10,15,5,22,0.00,0,,212
2013-10-24,51,32,12,37,29,19,100,60,35,30.44,30.35,30.17,10,10,9,14,9,21,0.00,0,,38
2013-10-25,57,40,23,36,27,23,100,55,29,30.45,30.34,30.15,10,10,8,17,8,23,0.00,1,,166
2013-10-26,55,47,10,45,34,23,76,61,37,30.21,30.16,30.11,10,10,8,22,12,26,0.00,1,,328
2013-10-27,55,30,6,28,25,21,100,73,33,30.19,30.05,29.94,10,10,10,18,8,22,0.00,0,,186
2013-10-28,53,48,42,50,46,36,88,84,76,30.09,30.03,29.96,10,8,0,18,11,24,0.00,6,,153
2013-10-29,69,62,55,63,57,50,94,84,77,30.03,29.97,29.91,10,7,0,18,10,21,2.22,7,Thunderstorm,170
2013-10-30,69,58,48,64,52,45,94,87,82,29.99,29.85,29.76,10,5,0,17,8,24,0.07,8,Thunderstorm,3
2013-10-31,62,53,44,46,41,36,93,72,39,29.76,29.69,29.62,10,9,5,24,11,30,1.12,4,Thunderstorm,322